sensor_id;sensor_type;location;lat;lon;timestamp;P1;durP1;ratioP1;P2;durP2;ratioP2
5054;SDS011;13829;48.990;8.346;2023-09-19T00:00:05;3.57;;;1.53;;
5054;SDS011;13829;48.990;8.346;2023-09-19T00:02:34;2.07;;;1.43;;
5054;SDS011;13829;48.990;8.346;2023-09-19T00:05:04;2.70;;;1.30;;
5054;SDS011;13829;48.990;8.346;2023-09-19T00:07:34;3.03;;;1.53;;
5054;SDS011;13829;48.990;8.346;2023-09-19T00:10:02;3.43;;;1.20;;
5054;SDS011;13829;48.990;8.346;2023-09-19T00:12:30;2.80;;;1.10;;
5054;SDS011;13829;48.990;8.346;2023-09-19T00:14:57;4.07;;;1.30;;
5054;SDS011;13829;48.990;8.346;2023-09-19T00:17:27;3.67;;;1.37;;
5054;SDS011;13829;48.990;8.346;2023-09-19T00:19:57;3.27;;;1.50;;
5054;SDS011;13829;48.990;8.346;2023-09-19T00:22:23;5.70;;;1.63;;
5054;SDS011;13829;48.990;8.346;2023-09-19T00:24:51;2.17;;;1.30;;
5054;SDS011;13829;48.990;8.346;2023-09-19T00:27:20;2.30;;;1.20;;
5054;SDS011;13829;48.990;8.346;2023-09-19T00:29:47;4.30;;;1.67;;
5054;SDS011;13829;48.990;8.346;2023-09-19T00:32:14;2.67;;;1.10;;
5054;SDS011;13829;48.990;8.346;2023-09-19T00:34:42;3.73;;;1.20;;
5054;SDS011;13829;48.990;8.346;2023-09-19T00:37:09;2.30;;;1.20;;
5054;SDS011;13829;48.990;8.346;2023-09-19T00:39:38;2.93;;;1.30;;
5054;SDS011;13829;48.990;8.346;2023-09-19T00:42:06;3.30;;;1.20;;
5054;SDS011;13829;48.990;8.346;2023-09-19T00:44:33;3.63;;;1.27;;
5054;SDS011;13829;48.990;8.346;2023-09-19T00:47:02;5.27;;;1.70;;
5054;SDS011;13829;48.990;8.346;2023-09-19T00:49:29;4.40;;;1.17;;
5054;SDS011;13829;48.990;8.346;2023-09-19T00:51:59;4.23;;;1.30;;
5054;SDS011;13829;48.990;8.346;2023-09-19T00:54:29;2.50;;;1.23;;
5054;SDS011;13829;48.990;8.346;2023-09-19T00:56:58;1.93;;;1.23;;
5054;SDS011;13829;48.990;8.346;2023-09-19T00:59:25;2.83;;;1.20;;
5054;SDS011;13829;48.990;8.346;2023-09-19T01:01:55;2.53;;;1.40;;
5054;SDS011;13829;48.990;8.346;2023-09-19T01:04:25;1.57;;;1.10;;
5054;SDS011;13829;48.990;8.346;2023-09-19T01:06:52;2.23;;;1.00;;
5054;SDS011;13829;48.990;8.346;2023-09-19T01:09:21;1.87;;;1.23;;
5054;SDS011;13829;48.990;8.346;2023-09-19T01:11:50;1.23;;;0.93;;
5054;SDS011;13829;48.990;8.346;2023-09-19T01:14:29;2.20;;;1.10;;
5054;SDS011;13829;48.990;8.346;2023-09-19T01:17:09;2.20;;;1.00;;
5054;SDS011;13829;48.990;8.346;2023-09-19T01:19:59;3.47;;;0.90;;
5054;SDS011;13829;48.990;8.346;2023-09-19T01:22:56;0.93;;;0.87;;
5054;SDS011;13829;48.990;8.346;2023-09-19T01:28:43;2.57;;;1.10;;
5054;SDS011;13829;48.990;8.346;2023-09-19T01:31:21;2.77;;;1.17;;
5054;SDS011;13829;48.990;8.346;2023-09-19T01:33:54;3.03;;;1.20;;
5054;SDS011;13829;48.990;8.346;2023-09-19T01:36:22;2.40;;;1.13;;
5054;SDS011;13829;48.990;8.346;2023-09-19T01:38:49;3.57;;;1.10;;
5054;SDS011;13829;48.990;8.346;2023-09-19T01:41:17;5.97;;;1.27;;
5054;SDS011;13829;48.990;8.346;2023-09-19T01:43:56;3.87;;;1.10;;
5054;SDS011;13829;48.990;8.346;2023-09-19T01:46:34;1.27;;;0.90;;
5054;SDS011;13829;48.990;8.346;2023-09-19T01:49:09;1.27;;;0.73;;
5054;SDS011;13829;48.990;8.346;2023-09-19T01:51:55;3.70;;;1.10;;
5054;SDS011;13829;48.990;8.346;2023-09-19T01:54:31;1.53;;;1.10;;
5054;SDS011;13829;48.990;8.346;2023-09-19T01:57:13;3.00;;;1.17;;
5054;SDS011;13829;48.990;8.346;2023-09-19T01:59:50;2.13;;;1.07;;
5054;SDS011;13829;48.990;8.346;2023-09-19T02:02:27;3.03;;;1.40;;
5054;SDS011;13829;48.990;8.346;2023-09-19T02:04:55;2.03;;;1.10;;
5054;SDS011;13829;48.990;8.346;2023-09-19T02:07:22;2.30;;;1.00;;
5054;SDS011;13829;48.990;8.346;2023-09-19T02:09:49;3.07;;;1.10;;
5054;SDS011;13829;48.990;8.346;2023-09-19T02:12:16;2.07;;;1.00;;
5054;SDS011;13829;48.990;8.346;2023-09-19T02:14:43;3.77;;;1.10;;
5054;SDS011;13829;48.990;8.346;2023-09-19T02:17:11;2.07;;;1.07;;
5054;SDS011;13829;48.990;8.346;2023-09-19T02:19:39;6.17;;;1.60;;
5054;SDS011;13829;48.990;8.346;2023-09-19T02:22:06;3.77;;;1.20;;
5054;SDS011;13829;48.990;8.346;2023-09-19T02:24:35;1.77;;;1.30;;
5054;SDS011;13829;48.990;8.346;2023-09-19T02:27:03;2.00;;;1.10;;
5054;SDS011;13829;48.990;8.346;2023-09-19T02:29:31;4.27;;;1.10;;
5054;SDS011;13829;48.990;8.346;2023-09-19T02:31:57;3.87;;;1.17;;
5054;SDS011;13829;48.990;8.346;2023-09-19T02:34:24;2.60;;;1.20;;
5054;SDS011;13829;48.990;8.346;2023-09-19T02:36:53;3.10;;;1.27;;
5054;SDS011;13829;48.990;8.346;2023-09-19T02:39:21;2.50;;;0.90;;
5054;SDS011;13829;48.990;8.346;2023-09-19T02:41:48;2.07;;;1.40;;
5054;SDS011;13829;48.990;8.346;2023-09-19T02:44:15;1.50;;;1.10;;
5054;SDS011;13829;48.990;8.346;2023-09-19T02:46:44;2.03;;;1.10;;
5054;SDS011;13829;48.990;8.346;2023-09-19T02:49:11;4.13;;;1.40;;
5054;SDS011;13829;48.990;8.346;2023-09-19T02:51:38;2.67;;;1.03;;
5054;SDS011;13829;48.990;8.346;2023-09-19T02:54:07;3.30;;;1.27;;
5054;SDS011;13829;48.990;8.346;2023-09-19T02:56:34;3.30;;;1.53;;
5054;SDS011;13829;48.990;8.346;2023-09-19T02:59:02;2.10;;;1.40;;
5054;SDS011;13829;48.990;8.346;2023-09-19T03:01:29;3.13;;;1.53;;
5054;SDS011;13829;48.990;8.346;2023-09-19T03:03:57;3.77;;;1.63;;
5054;SDS011;13829;48.990;8.346;2023-09-19T03:06:24;4.77;;;1.40;;
5054;SDS011;13829;48.990;8.346;2023-09-19T03:08:51;4.47;;;1.77;;
5054;SDS011;13829;48.990;8.346;2023-09-19T03:11:20;3.73;;;1.73;;
5054;SDS011;13829;48.990;8.346;2023-09-19T03:13:50;3.00;;;1.60;;
5054;SDS011;13829;48.990;8.346;2023-09-19T03:16:18;2.50;;;1.83;;
5054;SDS011;13829;48.990;8.346;2023-09-19T03:18:47;4.07;;;1.63;;
5054;SDS011;13829;48.990;8.346;2023-09-19T03:21:14;2.40;;;1.53;;
5054;SDS011;13829;48.990;8.346;2023-09-19T03:23:42;2.50;;;1.60;;
5054;SDS011;13829;48.990;8.346;2023-09-19T03:26:11;4.97;;;1.53;;
5054;SDS011;13829;48.990;8.346;2023-09-19T03:28:41;4.97;;;1.87;;
5054;SDS011;13829;48.990;8.346;2023-09-19T03:31:08;3.60;;;1.50;;
5054;SDS011;13829;48.990;8.346;2023-09-19T03:33:36;2.57;;;1.33;;
5054;SDS011;13829;48.990;8.346;2023-09-19T03:36:03;3.07;;;1.80;;
5054;SDS011;13829;48.990;8.346;2023-09-19T03:38:31;3.70;;;1.63;;
5054;SDS011;13829;48.990;8.346;2023-09-19T03:40:59;6.40;;;1.70;;
5054;SDS011;13829;48.990;8.346;2023-09-19T03:43:26;2.23;;;1.60;;
5054;SDS011;13829;48.990;8.346;2023-09-19T03:45:54;4.93;;;1.70;;
5054;SDS011;13829;48.990;8.346;2023-09-19T03:48:21;3.00;;;1.53;;
5054;SDS011;13829;48.990;8.346;2023-09-19T03:50:48;4.37;;;1.70;;
5054;SDS011;13829;48.990;8.346;2023-09-19T03:53:16;4.03;;;1.83;;
5054;SDS011;13829;48.990;8.346;2023-09-19T03:55:44;2.83;;;1.60;;
5054;SDS011;13829;48.990;8.346;2023-09-19T03:58:12;3.50;;;1.50;;
5054;SDS011;13829;48.990;8.346;2023-09-19T04:00:39;4.10;;;1.63;;
5054;SDS011;13829;48.990;8.346;2023-09-19T04:03:07;5.60;;;2.20;;
5054;SDS011;13829;48.990;8.346;2023-09-19T04:05:35;5.17;;;1.40;;
5054;SDS011;13829;48.990;8.346;2023-09-19T04:08:03;2.20;;;1.50;;
5054;SDS011;13829;48.990;8.346;2023-09-19T04:10:31;4.13;;;2.00;;
5054;SDS011;13829;48.990;8.346;2023-09-19T04:12:58;5.10;;;2.10;;
5054;SDS011;13829;48.990;8.346;2023-09-19T04:15:25;3.57;;;1.70;;
5054;SDS011;13829;48.990;8.346;2023-09-19T04:17:52;4.97;;;1.60;;
5054;SDS011;13829;48.990;8.346;2023-09-19T04:20:20;4.67;;;1.67;;
5054;SDS011;13829;48.990;8.346;2023-09-19T04:22:48;3.37;;;1.83;;
5054;SDS011;13829;48.990;8.346;2023-09-19T04:25:15;3.50;;;1.73;;
5054;SDS011;13829;48.990;8.346;2023-09-19T04:27:44;5.70;;;2.07;;
5054;SDS011;13829;48.990;8.346;2023-09-19T04:30:11;4.50;;;1.90;;
5054;SDS011;13829;48.990;8.346;2023-09-19T04:32:39;6.80;;;2.40;;
5054;SDS011;13829;48.990;8.346;2023-09-19T04:35:07;3.60;;;1.80;;
5054;SDS011;13829;48.990;8.346;2023-09-19T04:37:38;3.73;;;2.13;;
5054;SDS011;13829;48.990;8.346;2023-09-19T04:40:07;5.73;;;2.10;;
5054;SDS011;13829;48.990;8.346;2023-09-19T04:42:38;4.17;;;1.90;;
5054;SDS011;13829;48.990;8.346;2023-09-19T04:45:06;6.67;;;2.30;;
5054;SDS011;13829;48.990;8.346;2023-09-19T04:47:35;2.80;;;1.60;;
5054;SDS011;13829;48.990;8.346;2023-09-19T04:50:05;3.80;;;1.60;;
5054;SDS011;13829;48.990;8.346;2023-09-19T04:52:38;7.50;;;2.03;;
5054;SDS011;13829;48.990;8.346;2023-09-19T04:55:09;4.57;;;2.07;;
5054;SDS011;13829;48.990;8.346;2023-09-19T04:57:38;4.77;;;1.93;;
5054;SDS011;13829;48.990;8.346;2023-09-19T05:00:06;4.60;;;1.90;;
5054;SDS011;13829;48.990;8.346;2023-09-19T05:02:37;4.83;;;1.90;;
5054;SDS011;13829;48.990;8.346;2023-09-19T05:05:06;5.60;;;1.98;;
5054;SDS011;13829;48.990;8.346;2023-09-19T05:07:34;2.93;;;2.13;;
5054;SDS011;13829;48.990;8.346;2023-09-19T05:10:02;3.70;;;1.70;;
5054;SDS011;13829;48.990;8.346;2023-09-19T05:12:32;5.37;;;2.10;;
5054;SDS011;13829;48.990;8.346;2023-09-19T05:15:00;2.70;;;1.70;;
5054;SDS011;13829;48.990;8.346;2023-09-19T05:17:28;2.83;;;2.07;;
5054;SDS011;13829;48.990;8.346;2023-09-19T05:19:56;3.80;;;2.10;;
5054;SDS011;13829;48.990;8.346;2023-09-19T05:22:26;3.87;;;1.80;;
5054;SDS011;13829;48.990;8.346;2023-09-19T05:24:54;3.90;;;2.10;;
5054;SDS011;13829;48.990;8.346;2023-09-19T05:27:22;3.73;;;1.90;;
5054;SDS011;13829;48.990;8.346;2023-09-19T05:29:49;3.30;;;1.90;;
5054;SDS011;13829;48.990;8.346;2023-09-19T05:32:18;5.33;;;2.47;;
5054;SDS011;13829;48.990;8.346;2023-09-19T05:34:45;4.07;;;2.10;;
5054;SDS011;13829;48.990;8.346;2023-09-19T05:37:12;3.73;;;1.97;;
5054;SDS011;13829;48.990;8.346;2023-09-19T05:39:41;3.10;;;1.90;;
5054;SDS011;13829;48.990;8.346;2023-09-19T05:42:08;3.37;;;1.93;;
5054;SDS011;13829;48.990;8.346;2023-09-19T05:44:37;5.80;;;2.27;;
5054;SDS011;13829;48.990;8.346;2023-09-19T05:47:04;4.07;;;2.00;;
5054;SDS011;13829;48.990;8.346;2023-09-19T05:49:34;5.23;;;2.40;;
5054;SDS011;13829;48.990;8.346;2023-09-19T05:52:03;6.90;;;2.70;;
5054;SDS011;13829;48.990;8.346;2023-09-19T05:54:31;4.23;;;2.03;;
5054;SDS011;13829;48.990;8.346;2023-09-19T05:56:58;5.70;;;2.10;;
5054;SDS011;13829;48.990;8.346;2023-09-19T05:59:25;4.07;;;1.97;;
5054;SDS011;13829;48.990;8.346;2023-09-19T06:01:53;6.50;;;2.20;;
5054;SDS011;13829;48.990;8.346;2023-09-19T06:04:20;2.60;;;1.80;;
5054;SDS011;13829;48.990;8.346;2023-09-19T06:06:48;3.00;;;1.87;;
5054;SDS011;13829;48.990;8.346;2023-09-19T06:09:15;5.00;;;2.33;;
5054;SDS011;13829;48.990;8.346;2023-09-19T06:11:42;2.67;;;2.00;;
5054;SDS011;13829;48.990;8.346;2023-09-19T06:14:09;2.40;;;1.77;;
5054;SDS011;13829;48.990;8.346;2023-09-19T06:16:36;2.93;;;1.90;;
5054;SDS011;13829;48.990;8.346;2023-09-19T06:19:05;2.97;;;2.07;;
5054;SDS011;13829;48.990;8.346;2023-09-19T06:21:33;3.37;;;1.90;;
5054;SDS011;13829;48.990;8.346;2023-09-19T06:24:00;3.03;;;1.90;;
5054;SDS011;13829;48.990;8.346;2023-09-19T06:26:28;8.53;;;2.80;;
5054;SDS011;13829;48.990;8.346;2023-09-19T06:28:55;5.13;;;2.40;;
5054;SDS011;13829;48.990;8.346;2023-09-19T06:31:22;7.77;;;2.17;;
5054;SDS011;13829;48.990;8.346;2023-09-19T06:33:51;5.27;;;2.00;;
5054;SDS011;13829;48.990;8.346;2023-09-19T06:36:19;5.17;;;1.80;;
5054;SDS011;13829;48.990;8.346;2023-09-19T06:38:46;5.00;;;1.90;;
5054;SDS011;13829;48.990;8.346;2023-09-19T06:41:16;4.60;;;1.70;;
5054;SDS011;13829;48.990;8.346;2023-09-19T06:43:43;4.03;;;1.83;;
5054;SDS011;13829;48.990;8.346;2023-09-19T06:46:10;4.60;;;1.85;;
5054;SDS011;13829;48.990;8.346;2023-09-19T06:48:37;3.15;;;1.83;;
5054;SDS011;13829;48.990;8.346;2023-09-19T06:51:04;1.67;;;1.35;;
5054;SDS011;13829;48.990;8.346;2023-09-19T06:53:34;6.38;;;2.15;;
5054;SDS011;13829;48.990;8.346;2023-09-19T06:56:01;3.97;;;1.40;;
5054;SDS011;13829;48.990;8.346;2023-09-19T06:58:29;2.58;;;1.67;;
5054;SDS011;13829;48.990;8.346;2023-09-19T07:00:56;3.33;;;1.42;;
5054;SDS011;13829;48.990;8.346;2023-09-19T07:03:23;3.55;;;1.60;;
5054;SDS011;13829;48.990;8.346;2023-09-19T07:05:51;3.90;;;1.58;;
5054;SDS011;13829;48.990;8.346;2023-09-19T07:08:21;5.55;;;1.80;;
5054;SDS011;13829;48.990;8.346;2023-09-19T07:10:49;3.42;;;1.92;;
5054;SDS011;13829;48.990;8.346;2023-09-19T07:13:17;4.65;;;1.80;;
5054;SDS011;13829;48.990;8.346;2023-09-19T07:15:44;5.88;;;1.88;;
5054;SDS011;13829;48.990;8.346;2023-09-19T07:18:15;5.60;;;1.92;;
5054;SDS011;13829;48.990;8.346;2023-09-19T07:20:43;3.00;;;1.50;;
5054;SDS011;13829;48.990;8.346;2023-09-19T07:23:14;3.95;;;1.95;;
5054;SDS011;13829;48.990;8.346;2023-09-19T07:25:43;2.78;;;1.58;;
5054;SDS011;13829;48.990;8.346;2023-09-19T07:28:12;4.95;;;1.80;;
5054;SDS011;13829;48.990;8.346;2023-09-19T07:30:39;2.75;;;1.63;;
5054;SDS011;13829;48.990;8.346;2023-09-19T07:33:07;2.60;;;1.88;;
5054;SDS011;13829;48.990;8.346;2023-09-19T07:35:36;2.60;;;1.48;;
5054;SDS011;13829;48.990;8.346;2023-09-19T07:38:05;4.75;;;1.75;;
5054;SDS011;13829;48.990;8.346;2023-09-19T07:40:32;3.22;;;1.85;;
5054;SDS011;13829;48.990;8.346;2023-09-19T07:42:59;4.30;;;2.10;;
5054;SDS011;13829;48.990;8.346;2023-09-19T07:45:28;3.75;;;1.70;;
5054;SDS011;13829;48.990;8.346;2023-09-19T07:47:56;3.53;;;1.60;;
5054;SDS011;13829;48.990;8.346;2023-09-19T07:50:25;2.50;;;1.65;;
5054;SDS011;13829;48.990;8.346;2023-09-19T07:52:52;3.83;;;1.52;;
5054;SDS011;13829;48.990;8.346;2023-09-19T07:55:19;3.47;;;2.03;;
5054;SDS011;13829;48.990;8.346;2023-09-19T07:57:49;3.58;;;1.92;;
5054;SDS011;13829;48.990;8.346;2023-09-19T08:00:16;3.08;;;1.42;;
5054;SDS011;13829;48.990;8.346;2023-09-19T08:02:44;3.30;;;1.70;;
5054;SDS011;13829;48.990;8.346;2023-09-19T08:05:12;2.40;;;1.50;;
5054;SDS011;13829;48.990;8.346;2023-09-19T08:07:41;3.90;;;1.67;;
5054;SDS011;13829;48.990;8.346;2023-09-19T08:10:13;5.00;;;1.42;;
5054;SDS011;13829;48.990;8.346;2023-09-19T08:12:44;4.55;;;1.80;;
5054;SDS011;13829;48.990;8.346;2023-09-19T08:15:13;2.25;;;1.60;;
5054;SDS011;13829;48.990;8.346;2023-09-19T08:17:42;1.77;;;1.40;;
5054;SDS011;13829;48.990;8.346;2023-09-19T08:20:10;2.70;;;1.40;;
5054;SDS011;13829;48.990;8.346;2023-09-19T08:22:42;2.33;;;1.48;;
5054;SDS011;13829;48.990;8.346;2023-09-19T08:25:12;3.28;;;1.33;;
5054;SDS011;13829;48.990;8.346;2023-09-19T08:27:42;2.90;;;1.45;;
5054;SDS011;13829;48.990;8.346;2023-09-19T08:30:12;2.80;;;1.30;;
5054;SDS011;13829;48.990;8.346;2023-09-19T08:32:40;2.72;;;1.38;;
5054;SDS011;13829;48.990;8.346;2023-09-19T08:35:09;1.77;;;1.20;;
5054;SDS011;13829;48.990;8.346;2023-09-19T08:37:37;2.22;;;1.13;;
5054;SDS011;13829;48.990;8.346;2023-09-19T08:40:04;2.75;;;1.20;;
5054;SDS011;13829;48.990;8.346;2023-09-19T08:42:46;3.97;;;1.60;;
5054;SDS011;13829;48.990;8.346;2023-09-19T08:45:15;3.08;;;1.13;;
5054;SDS011;13829;48.990;8.346;2023-09-19T08:47:45;3.50;;;1.20;;
5054;SDS011;13829;48.990;8.346;2023-09-19T08:50:29;3.00;;;1.30;;
5054;SDS011;13829;48.990;8.346;2023-09-19T08:52:57;3.03;;;1.42;;
5054;SDS011;13829;48.990;8.346;2023-09-19T08:55:28;3.38;;;1.10;;
5054;SDS011;13829;48.990;8.346;2023-09-19T08:57:59;3.33;;;1.15;;
5054;SDS011;13829;48.990;8.346;2023-09-19T09:00:29;3.65;;;1.10;;
5054;SDS011;13829;48.990;8.346;2023-09-19T09:02:58;3.72;;;1.48;;
5054;SDS011;13829;48.990;8.346;2023-09-19T09:05:30;2.78;;;1.08;;
5054;SDS011;13829;48.990;8.346;2023-09-19T09:08:01;3.03;;;0.93;;
5054;SDS011;13829;48.990;8.346;2023-09-19T09:10:32;1.92;;;1.00;;
5054;SDS011;13829;48.990;8.346;2023-09-19T09:13:00;2.08;;;1.08;;
5054;SDS011;13829;48.990;8.346;2023-09-19T09:15:31;3.28;;;1.13;;
5054;SDS011;13829;48.990;8.346;2023-09-19T09:18:03;4.55;;;1.30;;
5054;SDS011;13829;48.990;8.346;2023-09-19T09:20:32;4.35;;;1.23;;
5054;SDS011;13829;48.990;8.346;2023-09-19T09:22:59;4.88;;;1.38;;
5054;SDS011;13829;48.990;8.346;2023-09-19T09:28:18;2.70;;;1.40;;
5054;SDS011;13829;48.990;8.346;2023-09-19T09:30:47;8.38;;;1.52;;
5054;SDS011;13829;48.990;8.346;2023-09-19T09:33:15;4.25;;;1.48;;
5054;SDS011;13829;48.990;8.346;2023-09-19T09:35:51;2.95;;;1.30;;
5054;SDS011;13829;48.990;8.346;2023-09-19T09:38:21;2.35;;;1.13;;
5054;SDS011;13829;48.990;8.346;2023-09-19T09:40:53;3.85;;;1.45;;
5054;SDS011;13829;48.990;8.346;2023-09-19T09:43:25;3.65;;;1.25;;
5054;SDS011;13829;48.990;8.346;2023-09-19T09:46:08;2.47;;;1.25;;
5054;SDS011;13829;48.990;8.346;2023-09-19T09:48:56;1.90;;;1.10;;
5054;SDS011;13829;48.990;8.346;2023-09-19T09:51:45;4.13;;;1.15;;
5054;SDS011;13829;48.990;8.346;2023-09-19T09:54:24;3.58;;;1.33;;
5054;SDS011;13829;48.990;8.346;2023-09-19T09:56:59;3.45;;;1.25;;
5054;SDS011;13829;48.990;8.346;2023-09-19T09:59:45;5.13;;;1.73;;
5054;SDS011;13829;48.990;8.346;2023-09-19T10:02:19;3.25;;;1.20;;
5054;SDS011;13829;48.990;8.346;2023-09-19T10:04:51;2.00;;;1.10;;
5054;SDS011;13829;48.990;8.346;2023-09-19T10:07:26;5.75;;;1.35;;
5054;SDS011;13829;48.990;8.346;2023-09-19T10:09:58;6.35;;;1.40;;
5054;SDS011;13829;48.990;8.346;2023-09-19T10:12:34;4.78;;;1.38;;
5054;SDS011;13829;48.990;8.346;2023-09-19T10:15:08;6.30;;;1.75;;
5054;SDS011;13829;48.990;8.346;2023-09-19T10:17:42;2.80;;;1.30;;
5054;SDS011;13829;48.990;8.346;2023-09-19T10:20:14;1.42;;;0.95;;
5054;SDS011;13829;48.990;8.346;2023-09-19T10:23:05;5.70;;;1.55;;
5054;SDS011;13829;48.990;8.346;2023-09-19T10:25:36;3.28;;;1.50;;
5054;SDS011;13829;48.990;8.346;2023-09-19T10:28:05;2.90;;;1.60;;
5054;SDS011;13829;48.990;8.346;2023-09-19T10:30:36;2.70;;;1.40;;
5054;SDS011;13829;48.990;8.346;2023-09-19T10:33:09;4.80;;;1.20;;
5054;SDS011;13829;48.990;8.346;2023-09-19T10:35:38;2.10;;;1.30;;
5054;SDS011;13829;48.990;8.346;2023-09-19T10:38:11;4.40;;;1.42;;
5054;SDS011;13829;48.990;8.346;2023-09-19T10:40:40;6.72;;;2.28;;
5054;SDS011;13829;48.990;8.346;2023-09-19T10:43:11;4.75;;;1.70;;
5054;SDS011;13829;48.990;8.346;2023-09-19T10:45:44;5.18;;;1.45;;
5054;SDS011;13829;48.990;8.346;2023-09-19T10:48:14;3.17;;;1.67;;
5054;SDS011;13829;48.990;8.346;2023-09-19T10:50:44;4.10;;;1.27;;
5054;SDS011;13829;48.990;8.346;2023-09-19T10:53:18;1.98;;;1.30;;
5054;SDS011;13829;48.990;8.346;2023-09-19T10:55:48;5.90;;;1.58;;
5054;SDS011;13829;48.990;8.346;2023-09-19T10:58:25;4.43;;;1.38;;
5054;SDS011;13829;48.990;8.346;2023-09-19T11:00:55;2.85;;;1.40;;
5054;SDS011;13829;48.990;8.346;2023-09-19T11:03:27;2.20;;;1.20;;
5054;SDS011;13829;48.990;8.346;2023-09-19T11:06:03;4.93;;;1.80;;
5054;SDS011;13829;48.990;8.346;2023-09-19T11:09:00;4.32;;;1.63;;
5054;SDS011;13829;48.990;8.346;2023-09-19T11:11:47;4.93;;;1.60;;
5054;SDS011;13829;48.990;8.346;2023-09-19T11:14:30;3.53;;;1.38;;
5054;SDS011;13829;48.990;8.346;2023-09-19T11:20:22;4.20;;;1.60;;
5054;SDS011;13829;48.990;8.346;2023-09-19T11:25:57;6.88;;;1.73;;
5054;SDS011;13829;48.990;8.346;2023-09-19T11:40:36;5.28;;;1.40;;
5054;SDS011;13829;48.990;8.346;2023-09-19T11:46:08;4.20;;;1.40;;
5054;SDS011;13829;48.990;8.346;2023-09-19T11:48:37;4.47;;;1.63;;
5054;SDS011;13829;48.990;8.346;2023-09-19T11:51:12;3.47;;;1.42;;
5054;SDS011;13829;48.990;8.346;2023-09-19T11:53:44;3.20;;;1.30;;
5054;SDS011;13829;48.990;8.346;2023-09-19T11:56:15;3.17;;;1.23;;
5054;SDS011;13829;48.990;8.346;2023-09-19T11:58:45;1.50;;;0.98;;
5054;SDS011;13829;48.990;8.346;2023-09-19T12:01:14;1.60;;;0.90;;
5054;SDS011;13829;48.990;8.346;2023-09-19T12:03:52;4.00;;;1.40;;
5054;SDS011;13829;48.990;8.346;2023-09-19T12:06:23;3.05;;;1.33;;
5054;SDS011;13829;48.990;8.346;2023-09-19T12:08:50;3.03;;;1.27;;
5054;SDS011;13829;48.990;8.346;2023-09-19T12:11:19;3.75;;;1.27;;
5054;SDS011;13829;48.990;8.346;2023-09-19T12:13:50;2.50;;;1.50;;
5054;SDS011;13829;48.990;8.346;2023-09-19T12:16:18;3.08;;;1.45;;
5054;SDS011;13829;48.990;8.346;2023-09-19T12:18:49;3.78;;;1.40;;
5054;SDS011;13829;48.990;8.346;2023-09-19T12:21:24;6.03;;;1.58;;
5054;SDS011;13829;48.990;8.346;2023-09-19T12:26:45;4.95;;;1.50;;
5054;SDS011;13829;48.990;8.346;2023-09-19T12:29:19;2.35;;;1.40;;
5054;SDS011;13829;48.990;8.346;2023-09-19T12:31:48;4.15;;;1.50;;
5054;SDS011;13829;48.990;8.346;2023-09-19T12:34:21;2.03;;;1.35;;
5054;SDS011;13829;48.990;8.346;2023-09-19T12:37:03;3.78;;;1.30;;
5054;SDS011;13829;48.990;8.346;2023-09-19T12:39:37;3.60;;;1.35;;
5054;SDS011;13829;48.990;8.346;2023-09-19T12:42:06;3.13;;;1.20;;
5054;SDS011;13829;48.990;8.346;2023-09-19T12:44:37;3.78;;;1.52;;
5054;SDS011;13829;48.990;8.346;2023-09-19T12:47:09;3.47;;;1.40;;
5054;SDS011;13829;48.990;8.346;2023-09-19T12:52:40;4.72;;;1.27;;
5054;SDS011;13829;48.990;8.346;2023-09-19T12:55:19;3.15;;;1.27;;
5054;SDS011;13829;48.990;8.346;2023-09-19T12:57:58;1.70;;;1.10;;
5054;SDS011;13829;48.990;8.346;2023-09-19T13:00:36;2.22;;;1.00;;
5054;SDS011;13829;48.990;8.346;2023-09-19T13:03:14;4.93;;;1.50;;
5054;SDS011;13829;48.990;8.346;2023-09-19T13:05:56;1.98;;;1.30;;
5054;SDS011;13829;48.990;8.346;2023-09-19T13:08:26;2.67;;;1.30;;
5054;SDS011;13829;48.990;8.346;2023-09-19T13:13:46;4.63;;;1.33;;
5054;SDS011;13829;48.990;8.346;2023-09-19T13:16:20;2.17;;;1.20;;
5054;SDS011;13829;48.990;8.346;2023-09-19T13:18:50;1.98;;;1.02;;
5054;SDS011;13829;48.990;8.346;2023-09-19T13:21:27;9.05;;;1.77;;
5054;SDS011;13829;48.990;8.346;2023-09-19T13:24:20;1.73;;;1.25;;
5054;SDS011;13829;48.990;8.346;2023-09-19T13:26:50;1.90;;;1.15;;
5054;SDS011;13829;48.990;8.346;2023-09-19T13:29:17;6.43;;;1.30;;
5054;SDS011;13829;48.990;8.346;2023-09-19T13:31:48;2.47;;;1.00;;
5054;SDS011;13829;48.990;8.346;2023-09-19T13:34:18;3.75;;;1.20;;
5054;SDS011;13829;48.990;8.346;2023-09-19T13:36:46;5.47;;;1.27;;
5054;SDS011;13829;48.990;8.346;2023-09-19T13:39:13;2.92;;;1.20;;
5054;SDS011;13829;48.990;8.346;2023-09-19T13:41:41;3.63;;;1.00;;
5054;SDS011;13829;48.990;8.346;2023-09-19T13:44:10;2.35;;;1.10;;
5054;SDS011;13829;48.990;8.346;2023-09-19T13:46:37;2.90;;;1.42;;
5054;SDS011;13829;48.990;8.346;2023-09-19T13:49:07;2.45;;;1.17;;
5054;SDS011;13829;48.990;8.346;2023-09-19T13:51:34;2.25;;;1.35;;
5054;SDS011;13829;48.990;8.346;2023-09-19T13:54:01;3.63;;;1.20;;
5054;SDS011;13829;48.990;8.346;2023-09-19T13:56:28;3.30;;;1.17;;
5054;SDS011;13829;48.990;8.346;2023-09-19T13:58:57;2.35;;;1.02;;
5054;SDS011;13829;48.990;8.346;2023-09-19T14:01:24;2.22;;;0.90;;
5054;SDS011;13829;48.990;8.346;2023-09-19T14:03:52;2.13;;;1.10;;
5054;SDS011;13829;48.990;8.346;2023-09-19T14:06:23;1.50;;;0.93;;
5054;SDS011;13829;48.990;8.346;2023-09-19T14:08:50;3.08;;;1.30;;
5054;SDS011;13829;48.990;8.346;2023-09-19T14:11:17;4.55;;;1.60;;
5054;SDS011;13829;48.990;8.346;2023-09-19T14:13:44;3.90;;;1.20;;
5054;SDS011;13829;48.990;8.346;2023-09-19T14:16:13;3.55;;;1.25;;
5054;SDS011;13829;48.990;8.346;2023-09-19T14:18:42;2.60;;;1.10;;
5054;SDS011;13829;48.990;8.346;2023-09-19T14:21:10;3.35;;;1.45;;
5054;SDS011;13829;48.990;8.346;2023-09-19T14:23:39;1.48;;;1.00;;
5054;SDS011;13829;48.990;8.346;2023-09-19T14:26:07;3.65;;;1.45;;
5054;SDS011;13829;48.990;8.346;2023-09-19T14:28:34;1.65;;;1.30;;
5054;SDS011;13829;48.990;8.346;2023-09-19T14:31:05;1.75;;;1.10;;
5054;SDS011;13829;48.990;8.346;2023-09-19T14:33:33;3.17;;;1.25;;
5054;SDS011;13829;48.990;8.346;2023-09-19T14:36:04;1.60;;;1.20;;
5054;SDS011;13829;48.990;8.346;2023-09-19T14:38:33;3.75;;;1.23;;
5054;SDS011;13829;48.990;8.346;2023-09-19T14:41:02;2.42;;;1.10;;
5054;SDS011;13829;48.990;8.346;2023-09-19T14:43:31;1.90;;;1.27;;
5054;SDS011;13829;48.990;8.346;2023-09-19T14:46:02;4.07;;;1.08;;
5054;SDS011;13829;48.990;8.346;2023-09-19T14:48:29;2.08;;;1.00;;
5054;SDS011;13829;48.990;8.346;2023-09-19T14:51:01;2.90;;;1.20;;
5054;SDS011;13829;48.990;8.346;2023-09-19T14:53:29;2.80;;;1.20;;
5054;SDS011;13829;48.990;8.346;2023-09-19T14:55:56;1.67;;;1.08;;
5054;SDS011;13829;48.990;8.346;2023-09-19T14:58:28;1.85;;;1.20;;
5054;SDS011;13829;48.990;8.346;2023-09-19T15:01:01;1.42;;;1.00;;
5054;SDS011;13829;48.990;8.346;2023-09-19T15:03:30;1.58;;;0.95;;
5054;SDS011;13829;48.990;8.346;2023-09-19T15:06:01;3.38;;;1.15;;
5054;SDS011;13829;48.990;8.346;2023-09-19T15:08:30;2.75;;;1.35;;
5054;SDS011;13829;48.990;8.346;2023-09-19T15:10:59;2.50;;;1.23;;
5054;SDS011;13829;48.990;8.346;2023-09-19T15:13:30;2.20;;;1.00;;
5054;SDS011;13829;48.990;8.346;2023-09-19T15:16:00;3.63;;;1.23;;
5054;SDS011;13829;48.990;8.346;2023-09-19T15:18:27;3.35;;;1.10;;
5054;SDS011;13829;48.990;8.346;2023-09-19T15:20:55;1.63;;;1.10;;
5054;SDS011;13829;48.990;8.346;2023-09-19T15:23:22;2.10;;;1.00;;
5054;SDS011;13829;48.990;8.346;2023-09-19T15:25:49;1.73;;;1.10;;
5054;SDS011;13829;48.990;8.346;2023-09-19T15:28:16;1.75;;;1.00;;
5054;SDS011;13829;48.990;8.346;2023-09-19T15:30:45;2.05;;;1.13;;
5054;SDS011;13829;48.990;8.346;2023-09-19T15:33:12;2.05;;;1.25;;
5054;SDS011;13829;48.990;8.346;2023-09-19T15:35:39;2.17;;;1.15;;
5054;SDS011;13829;48.990;8.346;2023-09-19T15:38:07;2.33;;;1.27;;
5054;SDS011;13829;48.990;8.346;2023-09-19T15:40:34;2.30;;;1.08;;
5054;SDS011;13829;48.990;8.346;2023-09-19T15:43:01;2.22;;;1.08;;
5054;SDS011;13829;48.990;8.346;2023-09-19T15:45:28;1.15;;;1.00;;
5054;SDS011;13829;48.990;8.346;2023-09-19T15:47:56;2.00;;;1.08;;
5054;SDS011;13829;48.990;8.346;2023-09-19T15:50:23;3.20;;;1.27;;
5054;SDS011;13829;48.990;8.346;2023-09-19T15:52:52;2.72;;;1.10;;